Time;durP1;ratioP1;P1;durP2;ratioP2;P2;SDS_P1;SDS_P2;PMS_P1;PMS_P2;Temp;Humidity;BMP_temperature;BMP_pressure;BME280_temperature;BME280_humidity;BME280_pressure;Samples;Min_cycle;Max_cycle;Signal;HPM_P1;HPM_P2
2022/04/30 00:02:08;;;;;;;2.25;1.67;;;;;;;19.82;32.06;97106.63;5016565;28;20041;-30
2022/04/30 00:04:35;;;;;;;2.38;1.70;;;;;;;19.83;32.01;97105.41;5016668;28;20364;-31
2022/04/30 00:07:00;;;;;;;2.65;1.70;;;;;;;19.86;32.02;97096.19;5016319;28;20033;-30
2022/04/30 00:09:26;;;;;;;3.50;1.77;;;;;;;19.82;31.69;97103.88;5016633;28;20376;-30
2022/04/30 00:11:51;;;;;;;2.85;2.05;;;;;;;19.89;31.66;97106.28;5016433;28;20392;-32
2022/04/30 00:14:17;;;;;;;3.92;1.48;;;;;;;19.84;31.70;97104.16;5016563;28;20026;-31
2022/04/30 00:16:42;;;;;;;2.65;1.73;;;;;;;19.86;31.49;97099.72;5014965;28;20018;-31
2022/04/30 00:19:08;;;;;;;2.25;1.60;;;;;;;19.80;31.87;97096.09;5016301;28;20029;-30
2022/04/30 00:21:34;;;;;;;3.15;1.98;;;;;;;19.88;31.62;97102.75;5016157;28;20029;-30
2022/04/30 00:23:59;;;;;;;2.05;1.88;;;;;;;19.88;31.74;97099.25;5016152;28;20032;-30
2022/04/30 00:26:25;;;;;;;1.85;1.60;;;;;;;19.86;31.77;97096.19;5016126;28;20025;-31
2022/04/30 00:28:52;;;;;;;3.20;1.77;;;;;;;19.84;31.91;97096.66;5016024;28;20506;-30
2022/04/30 00:31:18;;;;;;;2.10;1.58;;;;;;;19.89;31.34;97096.03;5016453;28;20026;-33
2022/04/30 00:33:47;;;;;;;2.78;1.92;;;;;;;19.93;31.52;97093.81;5014823;28;20026;-34
2022/04/30 00:36:14;;;;;;;4.00;1.77;;;;;;;19.88;31.32;97096.50;5016040;28;20022;-33
2022/04/30 00:38:40;;;;;;;3.00;1.77;;;;;;;19.86;30.88;97093.44;5016213;28;20029;-33
2022/04/30 00:41:07;;;;;;;2.50;1.52;;;;;;;19.86;31.11;97101.72;5015956;28;20025;-33
2022/04/30 00:43:43;;;;;;;2.63;1.80;;;;;;;19.82;31.15;97096.38;5016060;28;20025;-33
2022/04/30 00:46:12;;;;;;;2.15;1.70;;;;;;;19.80;31.22;97093.31;5015973;28;20053;-33
2022/04/30 00:48:38;;;;;;;2.95;1.70;;;;;;;19.87;31.29;97090.22;5015553;28;20136;-33
2022/04/30 00:51:04;;;;;;;2.72;1.80;;;;;;;19.87;31.14;97087.47;5015640;28;20141;-33
2022/04/30 00:53:32;;;;;;;3.42;1.60;;;;;;;19.85;31.11;97086.41;5015766;28;20396;-33
2022/04/30 00:56:01;;;;;;;2.67;1.90;;;;;;;19.87;30.95;97086.72;5015637;28;20128;-33
2022/04/30 00:58:29;;;;;;;2.13;1.80;;;;;;;19.89;30.99;97082.25;5015687;28;20400;-33
2022/04/30 01:00:56;;;;;;;2.35;1.70;;;;;;;19.99;30.52;97082.94;5015463;28;20050;-33
2022/04/30 01:03:22;;;;;;;2.28;1.75;;;;;;;19.88;31.36;97075.22;5014709;28;20464;-33
2022/04/30 01:05:49;;;;;;;3.85;1.77;;;;;;;19.83;31.28;97078.63;5015415;28;20030;-36
2022/04/30 01:08:15;;;;;;;3.05;1.85;;;;;;;19.88;31.02;97077.22;5015556;28;20109;-33
2022/04/30 01:10:40;;;;;;;1.80;1.65;;;;;;;19.90;30.91;97075.53;5015359;28;20159;-33
2022/04/30 01:13:08;;;;;;;2.10;1.88;;;;;;;19.93;30.77;97080.06;5015265;28;20391;-34
2022/04/30 01:15:34;;;;;;;2.20;1.80;;;;;;;19.86;30.93;97080.44;5015234;28;20032;-34
2022/04/30 01:18:01;;;;;;;2.53;1.88;;;;;;;19.88;30.61;97078.00;5015156;28;20042;-33
2022/04/30 01:20:27;;;;;;;2.00;1.80;;;;;;;19.89;30.86;97076.75;5012342;28;20029;-33
2022/04/30 01:23:02;;;;;;;2.33;1.95;;;;;;;19.90;30.59;97080.28;5013806;28;20109;-33
2022/04/30 01:25:30;;;;;;;3.33;2.00;;;;;;;19.89;30.55;97079.50;5014760;28;20022;-33
2022/04/30 01:27:56;;;;;;;3.13;1.80;;;;;;;19.87;30.38;97087.47;5015656;28;20033;-33
2022/04/30 01:30:23;;;;;;;2.65;1.83;;;;;;;19.88;30.63;97074.47;5015088;28;20048;-34
2022/04/30 01:38:16;;;;;;;4.47;2.10;;;;;;;19.82;30.59;97068.09;5014787;28;20036;-33
2022/04/30 01:40:42;;;;;;;2.00;1.70;;;;;;;19.80;30.40;97073.31;5014681;28;20026;-35
2022/04/30 01:43:08;;;;;;;2.30;1.52;;;;;;;19.84;30.66;97068.38;5014847;28;20109;-34
2022/04/30 01:45:35;;;;;;;2.40;1.75;;;;;;;19.85;30.28;97062.41;5014470;28;20026;-36
2022/04/30 01:48:02;;;;;;;2.78;2.00;;;;;;;19.78;30.54;97059.28;5046217;28;20182;-33
2022/04/30 01:50:28;;;;;;;2.00;1.63;;;;;;;19.84;30.56;97058.13;5014568;28;20373;-34
2022/04/30 01:52:53;;;;;;;1.88;1.73;;;;;;;19.85;30.10;97062.41;5046638;28;20028;-33
2022/04/30 01:55:19;;;;;;;2.53;1.80;;;;;;;19.77;30.50;97061.25;5014502;28;20468;-33
2022/04/30 01:57:45;;;;;;;2.90;1.75;;;;;;;19.81;30.17;97056.31;5014453;28;20101;-33
2022/04/30 02:00:14;;;;;;;2.28;1.92;;;;;;;19.85;30.25;97056.91;5014315;28;20106;-34
2022/04/30 02:02:42;;;;;;;2.90;1.80;;;;;;;19.83;30.34;97061.34;5014504;28;20026;-33
2022/04/30 02:05:09;;;;;;;2.17;1.83;;;;;;;19.85;30.32;97048.66;5014324;28;20026;-34
2022/04/30 02:07:49;;;;;;;2.13;1.90;;;;;;;19.85;29.84;97050.63;5014219;28;20097;-33
2022/04/30 02:10:18;;;;;;;1.77;1.63;;;;;;;19.83;30.49;97045.59;5014176;28;20109;-33
2022/04/30 02:12:44;;;;;;;2.47;1.80;;;;;;;19.77;30.20;97042.00;5014232;28;20389;-33
2022/04/30 02:15:13;;;;;;;2.47;1.70;;;;;;;19.75;30.72;97046.44;5014261;28;20022;-33
2022/04/30 02:17:41;;;;;;;2.13;1.52;;;;;;;19.71;29.91;97041.13;5014262;28;20076;-33
2022/04/30 02:20:29;;;;;;;2.60;1.85;;;;;;;19.75;30.15;97032.69;5014376;28;20388;-33
2022/04/30 02:22:57;;;;;;;2.70;1.85;;;;;;;19.68;30.18;97029.06;5046097;28;20446;-33
2022/04/30 02:25:23;;;;;;;3.50;1.83;;;;;;;19.77;29.94;97028.25;5014030;28;20104;-33
2022/04/30 02:27:51;;;;;;;2.20;1.80;;;;;;;19.70;30.17;97017.59;5013924;28;20030;-33
2022/04/30 02:30:19;;;;;;;3.03;1.58;;;;;;;19.73;30.53;97025.66;5014002;28;20029;-33
2022/04/30 02:32:48;;;;;;;2.78;1.70;;;;;;;19.79;30.17;97016.72;5046018;28;20026;-33
2022/04/30 02:35:19;;;;;;;3.03;1.98;;;;;;;19.78;30.27;97023.50;5013770;28;20022;-34
2022/04/30 02:37:49;;;;;;;1.80;1.70;;;;;;;19.74;30.08;97023.69;5014088;28;20416;-33
2022/04/30 02:40:16;;;;;;;2.03;1.52;;;;;;;19.64;30.14;97025.75;5014001;28;20391;-33
2022/04/30 02:42:44;;;;;;;1.90;1.70;;;;;;;19.63;30.51;97018.72;5013767;28;20029;-33
2022/04/30 02:45:11;;;;;;;2.08;1.80;;;;;;;19.66;30.03;97012.25;5013763;28;20072;-33
2022/04/30 02:47:42;;;;;;;3.30;1.83;;;;;;;19.63;30.47;97009.72;5013392;28;20054;-34
2022/04/30 02:50:09;;;;;;;2.75;2.03;;;;;;;19.67;30.29;97007.50;5013588;28;20080;-33
2022/04/30 02:52:41;;;;;;;2.95;1.70;;;;;;;19.69;30.15;97005.06;5013622;28;20022;-33
2022/04/30 02:55:07;;;;;;;2.60;1.70;;;;;;;19.62;30.21;97011.69;5013611;28;20057;-34
2022/04/30 03:07:38;;;;;;;2.03;1.83;;;;;;;19.62;30.52;97003.44;5012144;28;20530;-33
2022/04/30 03:22:15;;;;;;;1.67;1.58;;;;;;;19.62;30.21;96992.44;5013377;28;20037;-33
2022/04/30 03:24:41;;;;;;;2.25;1.73;;;;;;;19.57;30.46;96993.09;5012957;28;20030;-33
2022/04/30 03:27:07;;;;;;;2.17;1.63;;;;;;;19.58;30.19;96997.38;5015590;28;20029;-33
2022/04/30 03:29:33;;;;;;;2.58;1.80;;;;;;;19.69;30.50;96994.81;5017256;28;20026;-33
2022/04/30 03:31:58;;;;;;;2.92;1.77;;;;;;;19.67;30.30;97002.00;5017159;28;20033;-34
2022/04/30 03:34:24;;;;;;;2.40;1.80;;;;;;;19.60;30.50;96997.66;5017131;28;20022;-33
2022/04/30 03:36:49;;;;;;;2.72;1.50;;;;;;;19.62;30.32;96995.19;5017100;28;20026;-34
2022/04/30 03:39:15;;;;;;;2.45;1.80;;;;;;;19.51;30.53;96997.75;5017112;28;20428;-33
2022/04/30 03:41:40;;;;;;;1.60;1.50;;;;;;;19.54;30.42;97001.53;5016842;28;20037;-35
2022/04/30 03:44:07;;;;;;;2.08;1.80;;;;;;;19.54;30.26;96993.25;5016918;28;20032;-33
2022/04/30 03:46:33;;;;;;;2.45;1.70;;;;;;;19.52;30.28;96991.00;5016865;28;20522;-33
2022/04/30 03:49:00;;;;;;;3.67;2.20;;;;;;;19.58;30.72;96996.59;5016632;28;20440;-34
2022/04/30 03:51:26;;;;;;;4.75;2.90;;;;;;;19.53;30.48;96998.03;5016767;28;20430;-34
2022/04/30 03:53:53;;;;;;;4.50;2.42;;;;;;;19.53;30.48;96995.28;5016798;28;20082;-34
2022/04/30 04:19:53;;;;;;;2.22;1.88;;;;;;;19.41;30.53;97001.75;5015483;28;20125;-33
2022/04/30 04:22:19;;;;;;;3.10;1.83;;;;;;;19.46;30.72;97006.59;5016589;28;20034;-34
2022/04/30 04:31:17;;;;;;;3.75;2.10;;;;;;;19.46;30.94;97001.09;5014996;28;20079;-33
2022/04/30 04:33:42;;;;;;;3.13;2.13;;;;;;;19.40;30.55;97000.25;5015925;28;20088;-33
2022/04/30 04:36:08;;;;;;;2.20;1.80;;;;;;;19.46;30.80;97012.09;5016099;28;20476;-34
2022/04/30 04:38:34;;;;;;;2.55;1.88;;;;;;;19.43;30.46;97006.78;5014659;28;20017;-33
2022/04/30 04:41:00;;;;;;;3.42;1.88;;;;;;;19.42;30.79;97006.03;5015663;28;20061;-34
2022/04/30 04:43:26;;;;;;;2.03;1.77;;;;;;;19.46;30.52;97003.84;5015853;28;20072;-33
2022/04/30 04:45:51;;;;;;;2.55;1.65;;;;;;;19.40;30.64;97011.25;5015971;28;20442;-35
2022/04/30 04:48:17;;;;;;;1.95;1.60;;;;;;;19.35;30.64;97015.41;5015603;28;20450;-34
2022/04/30 04:50:43;;;;;;;2.88;1.63;;;;;;;19.44;30.57;97006.31;5015824;28;20486;-33
2022/04/30 04:53:08;;;;;;;2.88;2.00;;;;;;;19.41;30.93;97007.25;5015869;28;20028;-33
2022/04/30 04:55:34;;;;;;;2.72;1.90;;;;;;;19.40;30.95;97007.75;5015652;28;20026;-33
2022/04/30 05:31:37;;;;;;;2.30;1.92;;;;;;;19.33;31.60;97019.84;4992786;28;20088;-33
2022/04/30 05:40:46;;;;;;;2.78;1.85;;;;;;;19.33;31.36;97034.38;5011883;28;20122;-33
2022/04/30 05:43:11;;;;;;;1.92;1.73;;;;;;;19.34;31.39;97037.88;5012797;28;20443;-33
2022/04/30 05:45:37;;;;;;;2.15;1.95;;;;;;;19.31;31.63;97027.81;5012434;28;20030;-33
2022/04/30 05:48:02;;;;;;;2.88;1.80;;;;;;;19.33;31.61;97033.59;5012624;28;20100;-33
2022/04/30 05:50:28;;;;;;;2.75;1.80;;;;;;;19.27;31.72;97030.00;5012290;28;20030;-33
2022/04/30 05:52:54;;;;;;;3.72;2.10;;;;;;;19.29;31.41;97033.78;5011007;28;20040;-33
2022/04/30 05:55:19;;;;;;;2.78;2.10;;;;;;;19.28;31.76;97037.03;5012581;28;20022;-33
2022/04/30 05:57:44;;;;;;;3.42;1.75;;;;;;;19.29;31.88;97036.53;5027488;28;20052;-33
2022/04/30 06:00:11;;;;;;;3.28;1.92;;;;;;;19.32;31.94;97032.09;5012562;28;20057;-35
2022/04/30 06:02:36;;;;;;;2.15;1.80;;;;;;;19.29;31.79;97039.28;5012535;28;20395;-33
2022/04/30 06:05:03;;;;;;;2.65;1.90;;;;;;;19.29;31.87;97033.00;5012401;28;20034;-33
2022/04/30 06:07:30;;;;;;;2.13;1.92;;;;;;;19.26;32.06;97034.72;5012003;28;20053;-34
2022/04/30 06:09:55;;;;;;;2.67;1.80;;;;;;;19.28;31.92;97040.53;5012212;28;20486;-33
2022/04/30 06:12:21;;;;;;;1.73;1.50;;;;;;;19.29;32.03;97035.75;5012294;28;20133;-33
2022/04/30 06:14:47;;;;;;;2.97;1.83;;;;;;;19.29;32.04;97036.53;5012236;28;20064;-33
2022/04/30 06:17:12;;;;;;;3.80;2.28;;;;;;;19.27;32.42;97030.00;5012202;28;20049;-33
2022/04/30 06:19:38;;;;;;;2.10;1.80;;;;;;;19.27;32.38;97030.75;5011933;28;20479;-33
2022/04/30 06:22:04;;;;;;;2.22;1.83;;;;;;;19.27;32.39;97038.25;5012253;28;20021;-33
2022/04/30 06:24:29;;;;;;;3.28;2.33;;;;;;;19.27;32.53;97041.75;5012255;28;20176;-33
2022/04/30 06:26:55;;;;;;;3.05;2.63;;;;;;;19.27;32.68;97043.75;5011908;28;20025;-33
2022/04/30 06:29:22;;;;;;;3.10;2.80;;;;;;;19.24;32.45;97045.44;5012150;28;20076;-33
2022/04/30 06:31:48;;;;;;;2.72;2.40;;;;;;;19.32;32.49;97045.84;5011515;28;20109;-33
2022/04/30 06:34:14;;;;;;;5.03;2.47;;;;;;;19.32;32.37;97048.59;5011971;28;20487;-33
2022/04/30 06:36:43;;;;;;;3.03;2.35;;;;;;;19.29;32.32;97041.25;5011796;28;20048;-33
2022/04/30 06:39:15;;;;;;;4.50;2.63;;;;;;;19.28;32.40;97048.78;5012011;28;20022;-33
2022/04/30 06:41:51;;;;;;;3.92;2.50;;;;;;;19.15;32.65;97048.25;5011712;28;20550;-35
2022/04/30 06:44:16;;;;;;;3.88;2.70;;;;;;;19.22;32.65;97049.88;5011549;28;20440;-33
2022/04/30 06:46:42;;;;;;;2.28;2.05;;;;;;;19.20;32.75;97057.84;5011574;28;20026;-33
2022/04/30 06:49:08;;;;;;;3.45;2.53;;;;;;;19.33;32.52;97052.84;5011664;28;20100;-33
2022/04/30 06:51:33;;;;;;;3.45;2.47;;;;;;;19.29;32.71;97044.78;5011761;28;20026;-33
2022/04/30 06:59:28;;;;;;;2.72;2.10;;;;;;;19.28;32.83;97053.50;5011277;28;20116;-33
2022/04/30 07:02:01;;;;;;;2.30;1.90;;;;;;;19.30;32.86;97051.03;5010555;28;20034;-33
2022/04/30 07:04:29;;;;;;;4.60;2.38;;;;;;;19.30;32.65;97053.78;5011652;28;20794;-33
2022/04/30 07:06:55;;;;;;;3.53;2.17;;;;;;;19.28;32.92;97051.53;5011343;28;20061;-34
2022/04/30 07:09:20;;;;;;;2.88;2.28;;;;;;;19.28;32.87;97048.78;5011394;28;20061;-33
2022/04/30 07:11:46;;;;;;;3.67;2.13;;;;;;;19.23;33.00;97049.41;5011494;28;20590;-33
2022/04/30 07:14:11;;;;;;;2.88;2.00;;;;;;;19.17;33.02;97053.25;5011731;28;20075;-34
2022/04/30 07:16:38;;;;;;;3.63;2.13;;;;;;;19.24;32.91;97047.44;5011147;28;20067;-34
2022/04/30 07:19:04;;;;;;;2.70;2.25;;;;;;;19.19;33.33;97057.06;5013573;28;20397;-33
2022/04/30 07:21:33;;;;;;;2.75;2.00;;;;;;;19.19;33.21;97050.81;5013314;28;20018;-33
2022/04/30 07:23:59;;;;;;;4.75;2.35;;;;;;;19.21;32.96;97049.13;5013380;28;20029;-33
2022/04/30 07:26:25;;;;;;;2.35;1.95;;;;;;;19.31;33.19;97052.56;5013425;28;20040;-33
2022/04/30 07:28:52;;;;;;;2.50;1.90;;;;;;;19.22;33.25;97049.88;5012596;28;20387;-34
2022/04/30 07:31:18;;;;;;;3.35;2.00;;;;;;;19.23;32.88;97046.66;5013398;28;20030;-33
2022/04/30 07:33:44;;;;;;;3.15;2.03;;;;;;;19.15;33.15;97051.00;5013121;28;20022;-34
2022/04/30 07:36:09;;;;;;;2.58;2.05;;;;;;;19.24;33.30;97047.44;5012598;28;20018;-33
2022/04/30 07:38:35;;;;;;;3.40;2.20;;;;;;;19.14;33.36;97054.97;5011644;28;20022;-33
2022/04/30 07:41:01;;;;;;;3.35;2.20;;;;;;;18.94;33.79;97052.78;5013178;28;20029;-33
2022/04/30 07:43:26;;;;;;;2.97;2.00;;;;;;;19.24;33.27;97058.41;5013350;28;20034;-34
2022/04/30 07:45:52;;;;;;;3.38;2.60;;;;;;;19.06;32.95;97048.28;5013058;28;20125;-34
2022/04/30 07:48:17;;;;;;;3.40;2.42;;;;;;;19.14;33.60;97054.22;5012895;28;20053;-34
2022/04/30 07:50:46;;;;;;;5.78;4.20;;;;;;;19.16;33.44;97057.25;5013235;28;20427;-33
2022/04/30 07:53:16;;;;;;;3.72;2.90;;;;;;;18.92;33.88;97057.97;5013091;28;20029;-33
2022/04/30 07:55:42;;;;;;;3.85;2.60;;;;;;;19.20;33.52;97052.34;5013066;28;20026;-33
2022/04/30 07:58:08;;;;;;;4.40;3.05;;;;;;;19.06;33.86;97048.28;5013123;28;20054;-33
2022/04/30 08:00:35;;;;;;;3.22;2.50;;;;;;;18.84;34.55;97053.31;5013049;28;20022;-33
2022/04/30 08:03:00;;;;;;;4.05;2.78;;;;;;;18.91;34.08;97051.00;5012701;28;20080;-33
2022/04/30 08:05:27;;;;;;;3.30;2.30;;;;;;;18.38;34.46;97064.47;5012381;28;20041;-33
2022/04/30 08:07:56;;;;;;;5.82;2.92;;;;;;;18.84;34.29;97056.81;5012601;28;20037;-33
2022/04/30 08:10:22;;;;;;;4.28;2.70;;;;;;;18.92;34.26;97057.97;5012707;28;20036;-33
2022/04/30 08:12:54;;;;;;;4.35;2.92;;;;;;;18.63;34.58;97066.06;5014882;28;20041;-31
2022/04/30 08:15:22;;;;;;;2.90;2.17;;;;;;;18.41;35.23;97060.78;5016463;28;20097;-35
2022/04/30 08:17:47;;;;;;;3.05;2.20;;;;;;;18.56;34.01;97063.63;5016382;28;20420;-33
2022/04/30 08:20:14;;;;;;;5.25;2.22;;;;;;;18.61;33.98;97063.03;5014974;28;20029;-33
2022/04/30 08:22:40;;;;;;;2.65;2.22;;;;;;;18.75;33.56;97062.38;5016491;28;20118;-35
2022/04/30 08:25:06;;;;;;;3.13;2.15;;;;;;;18.88;33.85;97064.91;5015962;28;20475;-33
2022/04/30 08:27:32;;;;;;;4.75;2.40;;;;;;;18.79;33.80;97068.44;5015733;28;20060;-33
2022/04/30 08:29:58;;;;;;;3.17;2.20;;;;;;;18.53;34.73;97067.31;5015456;28;20049;-35
2022/04/30 08:32:26;;;;;;;4.18;2.53;;;;;;;18.82;34.42;97066.75;5016179;28;20440;-33
2022/04/30 08:34:52;;;;;;;5.85;2.40;;;;;;;18.91;34.62;97056.50;5015959;28;20045;-33
2022/04/30 08:37:18;;;;;;;3.83;1.98;;;;;;;18.97;34.49;97062.84;5015488;28;20435;-33
2022/04/30 08:39:44;;;;;;;4.25;2.42;;;;;;;18.69;34.19;97071.69;5015704;28;20038;-33
2022/04/30 08:42:12;;;;;;;3.70;2.50;;;;;;;18.83;34.20;97068.28;5015468;28;20387;-34
2022/04/30 08:44:38;;;;;;;3.30;2.10;;;;;;;18.53;34.03;97067.31;5015191;28;20384;-34
2022/04/30 08:47:04;;;;;;;3.58;1.88;;;;;;;18.51;34.33;97062.28;5014165;28;20138;-34
2022/04/30 08:49:33;;;;;;;2.83;2.22;;;;;;;18.51;34.07;97072.50;5015861;28;20520;-34
2022/04/30 08:52:01;;;;;;;4.30;2.28;;;;;;;18.46;33.89;97064.88;5015557;28;20025;-33
2022/04/30 08:54:26;;;;;;;3.03;2.45;;;;;;;18.83;34.72;97060.78;5015628;28;20088;-34
2022/04/30 08:56:53;;;;;;;3.58;2.33;;;;;;;18.85;34.07;97065.81;5015956;28;20059;-33
2022/04/30 08:59:19;;;;;;;3.20;1.90;;;;;;;18.90;34.01;97057.72;5015752;28;20431;-34
2022/04/30 09:01:47;;;;;;;5.40;2.22;;;;;;;19.00;34.76;97058.41;5015135;28;20084;-34
2022/04/30 09:04:12;;;;;;;5.20;2.60;;;;;;;18.97;34.45;97059.34;5015514;28;20084;-34
2022/04/30 09:06:49;;;;;;;5.80;2.53;;;;;;;19.14;34.26;97059.72;5015278;28;20396;-35
2022/04/30 09:09:29;;;;;;;6.43;2.35;;;;;;;19.24;34.16;97056.44;5015556;28;20029;-34
2022/04/30 09:12:06;;;;;;;8.68;2.40;;;;;;;19.02;34.63;97059.47;5015294;28;20029;-36
2022/04/30 09:14:31;;;;;;;5.57;2.55;;;;;;;18.96;35.00;97057.81;5015353;28;20713;-34
2022/04/30 09:17:02;;;;;;;3.92;2.45;;;;;;;18.87;35.50;97055.13;5013388;28;20460;-34
2022/04/30 09:19:27;;;;;;;5.63;2.45;;;;;;;18.93;35.03;97051.25;5013268;28;20029;-34
2022/04/30 09:21:53;;;;;;;4.38;2.42;;;;;;;18.96;34.84;97049.56;5014427;28;20018;-35
2022/04/30 09:24:18;;;;;;;5.35;2.75;;;;;;;18.96;34.77;97050.34;5014642;28;20104;-34
2022/04/30 09:26:44;;;;;;;4.22;2.30;;;;;;;19.13;34.56;97047.19;5015148;28;20022;-34
2022/04/30 09:29:24;;;;;;;2.28;1.85;;;;;;;19.09;34.63;97046.59;5015073;28;20029;-34
2022/04/30 09:31:53;;;;;;;3.90;2.22;;;;;;;19.03;34.96;97035.50;5013901;28;20480;-34
2022/04/30 09:39:49;;;;;;;5.47;2.58;;;;;;;19.20;34.56;97031.09;5015036;28;20080;-34
2022/04/30 09:42:15;;;;;;;3.42;2.20;;;;;;;19.21;34.73;97029.09;5014848;28;20529;-34
2022/04/30 09:44:41;;;;;;;3.13;1.92;;;;;;;19.23;34.38;97027.41;5046644;28;20034;-34
2022/04/30 09:47:08;;;;;;;5.10;2.28;;;;;;;19.30;34.43;97027.03;5045240;28;20022;-34
2022/04/30 09:55:06;;;;;;;3.45;1.90;;;;;;;19.45;34.17;97027.09;5014941;28;20382;-34
2022/04/30 09:57:35;;;;;;;3.17;2.45;;;;;;;19.44;34.18;97030.31;5014539;28;20018;-34
2022/04/30 10:00:01;;;;;;;3.63;2.15;;;;;;;19.43;34.33;97020.53;5014034;28;20033;-34
2022/04/30 10:02:29;;;;;;;3.78;2.00;;;;;;;19.49;34.31;97010.44;5014712;28;20032;-34
2022/04/30 10:04:56;;;;;;;2.63;2.08;;;;;;;19.48;34.20;97022.66;5013882;28;20026;-34
2022/04/30 10:07:24;;;;;;;3.88;2.33;;;;;;;19.38;34.47;97019.97;5014796;28;20364;-34
2022/04/30 10:10:01;;;;;;;4.03;2.22;;;;;;;19.49;34.26;97024.97;5014042;28;20087;-35
2022/04/30 10:12:41;;;;;;;3.35;2.55;;;;;;;19.40;34.38;97010.50;5014252;28;20033;-34
2022/04/30 10:15:30;;;;;;;2.88;2.20;;;;;;;19.46;34.45;97014.84;5013520;28;20120;-35
2022/04/30 10:17:57;;;;;;;4.00;2.30;;;;;;;19.40;34.54;97013.25;5014481;28;20101;-34
2022/04/30 10:20:34;;;;;;;3.88;2.30;;;;;;;19.36;33.72;97010.66;5014524;28;20144;-34
2022/04/30 10:23:01;;;;;;;3.65;2.25;;;;;;;19.45;34.42;97002.34;5013216;28;20025;-34
2022/04/30 10:25:47;;;;;;;3.13;1.98;;;;;;;19.38;34.46;97005.47;5013535;28;20157;-34
2022/04/30 10:28:23;;;;;;;3.88;2.35;;;;;;;19.39;34.47;97006.97;5013230;28;20368;-34
2022/04/30 10:31:10;;;;;;;3.58;2.22;;;;;;;19.55;34.15;97001.06;5013829;28;20025;-34
2022/04/30 10:33:50;;;;;;;3.65;2.40;;;;;;;19.52;34.06;97002.00;5013969;28;20461;-34
2022/04/30 10:36:15;;;;;;;4.95;2.10;;;;;;;19.46;34.20;97000.34;5010703;28;20041;-35
2022/04/30 10:38:44;;;;;;;3.15;2.05;;;;;;;19.54;33.96;96993.25;5013858;28;20025;-34
2022/04/30 10:41:11;;;;;;;5.90;2.30;;;;;;;19.55;33.97;96992.78;5013673;28;20377;-34
2022/04/30 10:43:42;;;;;;;3.30;2.00;;;;;;;19.54;34.24;96988.53;5013805;28;20025;-34
2022/04/30 10:46:13;;;;;;;2.80;2.28;;;;;;;19.61;34.10;96982.66;5013766;28;20388;-34
2022/04/30 10:48:39;;;;;;;2.63;2.20;;;;;;;19.66;33.96;96979.25;5013352;28;20042;-34
2022/04/30 10:51:09;;;;;;;5.50;2.42;;;;;;;19.59;34.21;96982.38;5013600;28;20568;-35
2022/04/30 10:53:39;;;;;;;2.30;1.80;;;;;;;19.53;34.09;96978.78;5013626;28;20064;-35
2022/04/30 10:56:07;;;;;;;4.47;2.63;;;;;;;19.60;34.10;96972.88;5013712;28;20053;-34
2022/04/30 10:58:34;;;;;;;4.40;2.10;;;;;;;19.65;34.17;96965.97;5013451;28;20160;-34
2022/04/30 11:01:19;;;;;;;2.13;1.90;;;;;;;19.63;34.23;96962.94;5013778;28;20034;-35
2022/04/30 11:03:47;;;;;;;2.03;1.83;;;;;;;19.68;34.08;96965.00;5013471;28;20029;-35
2022/04/30 11:06:21;;;;;;;2.83;2.17;;;;;;;19.68;34.01;96962.25;5013444;28;20022;-34
2022/04/30 11:09:00;;;;;;;4.35;2.40;;;;;;;19.73;34.06;96962.38;5013476;28;20121;-36
2022/04/30 11:11:25;;;;;;;3.38;2.25;;;;;;;19.68;34.20;96962.25;5013697;28;20079;-34
2022/04/30 11:14:02;;;;;;;7.43;2.13;;;;;;;19.66;34.27;96959.97;5013548;28;20021;-35
2022/04/30 11:16:41;;;;;;;4.72;1.75;;;;;;;19.67;34.18;96953.25;5013595;28;20025;-34
2022/04/30 11:19:11;;;;;;;4.75;1.90;;;;;;;19.65;34.10;96941.97;5013430;28;20365;-34
2022/04/30 11:21:47;;;;;;;3.38;1.92;;;;;;;19.66;33.92;96948.97;5013321;28;20021;-36
2022/04/30 11:24:31;;;;;;;3.80;2.08;;;;;;;19.72;33.89;96949.84;5013803;28;20075;-34
2022/04/30 11:27:05;;;;;;;3.78;1.70;;;;;;;19.62;33.92;96947.66;5013308;28;20103;-34
2022/04/30 11:29:31;;;;;;;2.28;1.90;;;;;;;19.65;33.76;96944.72;5013352;28;20112;-34
2022/04/30 11:31:58;;;;;;;4.07;1.85;;;;;;;19.62;33.93;96944.91;5013101;28;20026;-34
2022/04/30 11:34:24;;;;;;;4.00;2.08;;;;;;;19.62;33.96;96931.91;5013186;28;20484;-35
2022/04/30 11:36:57;;;;;;;2.75;1.90;;;;;;;19.60;33.68;96939.13;5013364;28;20057;-34
2022/04/30 11:39:23;;;;;;;2.65;1.80;;;;;;;19.66;33.37;96932.47;5013325;28;20097;-35
2022/04/30 11:41:51;;;;;;;3.30;1.90;;;;;;;19.65;33.46;96933.72;5013502;28;20376;-34
2022/04/30 11:44:20;;;;;;;3.60;2.30;;;;;;;19.70;33.56;96933.03;5013224;28;20061;-34
2022/04/30 11:46:47;;;;;;;3.20;1.90;;;;;;;19.75;33.10;96919.84;5013137;28;20049;-34
2022/04/30 11:49:15;;;;;;;5.15;1.77;;;;;;;19.77;32.95;96925.66;5016855;28;20042;-34
2022/04/30 11:51:42;;;;;;;3.83;1.92;;;;;;;19.77;33.17;96922.91;5016771;28;20025;-35
2022/04/30 11:54:09;;;;;;;2.15;1.90;;;;;;;19.77;33.19;96915.41;5017092;28;20454;-37
2022/04/30 11:56:37;;;;;;;3.17;2.00;;;;;;;19.82;33.27;96913.97;5016753;28;20526;-35
2022/04/30 11:59:03;;;;;;;2.05;1.65;;;;;;;19.79;33.53;96910.16;5016739;28;20388;-34
2022/04/30 12:01:35;;;;;;;2.38;2.00;;;;;;;19.76;33.30;96921.38;5016689;28;20033;-34
2022/04/30 12:04:08;;;;;;;2.75;1.80;;;;;;;19.80;33.36;96910.91;5016935;28;20159;-34
2022/04/30 12:06:34;;;;;;;3.00;2.10;;;;;;;19.84;33.19;96914.25;5016982;28;20095;-34
2022/04/30 12:09:00;;;;;;;2.45;1.98;;;;;;;19.87;32.92;96913.31;5015406;28;20263;-34
2022/04/30 12:11:26;;;;;;;3.30;2.15;;;;;;;19.86;33.06;96915.28;5016419;28;20471;-34
2022/04/30 12:14:07;;;;;;;3.13;2.10;;;;;;;19.93;33.18;96905.88;5016476;28;20033;-35
2022/04/30 12:16:41;;;;;;;2.28;1.50;;;;;;;19.91;33.23;96906.34;5015422;28;20048;-34
2022/04/30 12:25:19;;;;;;;5.15;2.13;;;;;;;21.33;31.36;96903.00;5016504;28;20033;-35
2022/04/30 12:28:02;;;;;;;2.90;1.90;;;;;;;21.93;30.32;96901.25;5015891;28;20037;-35
2022/04/30 12:30:28;;;;;;;2.88;2.13;;;;;;;22.02;30.09;96901.84;5015391;28;20071;-36
2022/04/30 12:33:03;;;;;;;3.00;1.90;;;;;;;22.16;30.16;96889.16;5016211;28;20037;-34
2022/04/30 12:35:34;;;;;;;2.53;2.00;;;;;;;22.20;30.31;96889.69;5015707;28;20025;-35
2022/04/30 12:38:12;;;;;;;2.58;2.00;;;;;;;22.29;29.98;96885.97;5015743;28;20057;-35
2022/04/30 12:40:43;;;;;;;4.25;2.00;;;;;;;22.28;30.41;96884.44;5015962;28;20076;-34
2022/04/30 12:43:09;;;;;;;2.47;1.73;;;;;;;22.35;30.26;96876.47;5015951;28;20484;-35
2022/04/30 12:45:35;;;;;;;2.15;1.90;;;;;;;22.35;30.29;96865.44;5015991;28;20033;-34
2022/04/30 12:48:01;;;;;;;2.22;1.65;;;;;;;22.43;30.10;96869.22;5015551;28;20115;-35
2022/04/30 12:50:28;;;;;;;2.35;1.88;;;;;;;22.40;30.31;96861.91;5015084;28;20472;-35
2022/04/30 12:52:54;;;;;;;2.00;1.80;;;;;;;22.38;30.20;96861.66;5014700;28;20049;-34
2022/04/30 12:55:20;;;;;;;3.67;2.10;;;;;;;22.33;30.31;96867.91;5015743;28;20476;-34
2022/04/30 12:57:47;;;;;;;2.35;1.67;;;;;;;22.44;30.44;96862.44;5015539;28;20045;-38
2022/04/30 13:00:15;;;;;;;3.03;1.80;;;;;;;22.38;30.30;96856.13;5014581;28;20033;-35
2022/04/30 13:02:42;;;;;;;2.63;1.80;;;;;;;22.40;30.60;96847.34;5015544;28;20028;-34
2022/04/30 13:05:08;;;;;;;3.28;1.90;;;;;;;22.39;30.48;96846.59;5011323;28;20415;-35
2022/04/30 13:07:38;;;;;;;2.45;1.98;;;;;;;22.40;30.45;96845.34;5013558;28;20034;-32
2022/04/30 13:15:41;;;;;;;2.42;1.70;;;;;;;22.30;31.06;96837.75;5013112;28;20163;-33
2022/04/30 13:18:07;;;;;;;3.72;1.83;;;;;;;22.40;30.55;96836.28;5013340;28;20045;-32
2022/04/30 13:20:34;;;;;;;3.35;1.83;;;;;;;22.48;30.35;96837.34;5013278;28;20022;-32
2022/04/30 13:23:00;;;;;;;1.75;1.52;;;;;;;22.48;30.50;96832.56;5013251;28;20498;-32
2022/04/30 13:25:30;;;;;;;2.35;2.15;;;;;;;22.47;30.48;96836.59;5013091;28;20025;-32
2022/04/30 13:27:56;;;;;;;2.63;2.00;;;;;;;22.41;30.93;96824.00;5011490;28;20165;-32
2022/04/30 13:30:26;;;;;;;3.58;2.00;;;;;;;22.35;31.19;96826.75;5013152;28;20021;-32
2022/04/30 13:32:53;;;;;;;5.75;1.90;;;;;;;22.26;31.04;96829.69;5011587;28;20030;-32
2022/04/30 13:35:19;;;;;;;2.50;1.80;;;;;;;22.37;31.17;96835.28;5011408;28;20029;-32
2022/04/30 13:37:45;;;;;;;3.08;2.10;;;;;;;22.29;31.52;96823.19;5012980;28;20046;-31
2022/04/30 13:40:15;;;;;;;2.75;1.90;;;;;;;22.31;31.41;96822.69;5012622;28;20448;-32
2022/04/30 13:42:41;;;;;;;5.95;2.33;;;;;;;22.19;31.50;96827.41;5012904;28;20034;-32
2022/04/30 13:45:08;;;;;;;2.80;1.90;;;;;;;22.29;31.89;96819.66;5012732;28;20112;-31